Time;durP1;ratioP1;P1;durP2;ratioP2;P2;SDS_P1;SDS_P2;PMS_P1;PMS_P2;Temp;Humidity;BMP_temperature;BMP_pressure;BME280_temperature;BME280_humidity;BME280_pressure;Samples;Min_cycle;Max_cycle;Signal;HPM_P1;HPM_P2
2021/07/17 00:00:37;;;;;;;18.90;4.30;;;;;;;;;;5988930;23;20041;-55
2021/07/17 00:03:05;;;;;;;19.67;4.75;;;;;;;;;;5963096;24;20037;-54
2021/07/17 00:05:33;;;;;;;19.65;4.35;;;;;;;;;;5942263;24;20035;-53
2021/07/17 00:07:59;;;;;;;20.17;4.10;;;;;;;;;;5941694;24;20041;-57
2021/07/17 00:10:27;;;;;;;22.02;4.82;;;;;;;;;;5962843;23;20097;-51
2021/07/17 00:12:53;;;;;;;19.35;4.60;;;;;;;;;;5968328;23;20030;-53
2021/07/17 00:15:21;;;;;;;23.23;4.93;;;;;;;;;;5962180;24;20045;-50
2021/07/17 00:17:48;;;;;;;19.85;4.38;;;;;;;;;;5968193;23;20042;-50
2021/07/17 00:20:15;;;;;;;19.05;4.88;;;;;;;;;;5962729;24;20034;-51
2021/07/17 00:22:43;;;;;;;16.25;4.45;;;;;;;;;;5961260;23;20089;-50
2021/07/17 00:25:11;;;;;;;17.80;4.65;;;;;;;;;;5962439;23;20034;-53
2021/07/17 00:27:38;;;;;;;21.88;5.10;;;;;;;;;;5964280;23;20035;-51
2021/07/17 00:30:05;;;;;;;23.40;4.90;;;;;;;;;;5960928;23;20066;-49
2021/07/17 00:32:32;;;;;;;16.45;4.22;;;;;;;;;;5965055;23;20030;-51
2021/07/17 00:34:58;;;;;;;19.25;4.55;;;;;;;;;;5964541;23;20030;-53
2021/07/17 00:37:24;;;;;;;19.05;4.50;;;;;;;;;;5989134;23;20030;-54
2021/07/17 00:39:58;;;;;;;17.58;4.72;;;;;;;;;;5961312;23;20087;-51
2021/07/17 00:42:25;;;;;;;15.85;4.40;;;;;;;;;;5964446;23;20030;-51
2021/07/17 00:44:51;;;;;;;22.58;5.00;;;;;;;;;;5963460;23;20103;-52
2021/07/17 00:47:18;;;;;;;23.67;4.18;;;;;;;;;;5966306;24;20030;-54
2021/07/17 00:49:45;;;;;;;21.67;4.38;;;;;;;;;;5965755;24;20055;-52
2021/07/17 00:52:11;;;;;;;24.90;4.78;;;;;;;;;;5961812;23;20112;-53
2021/07/17 00:54:39;;;;;;;19.17;4.45;;;;;;;;;;5966562;24;20037;-52
2021/07/17 00:57:07;;;;;;;18.42;4.68;;;;;;;;;;5962804;24;20038;-54
2021/07/17 00:59:34;;;;;;;18.90;4.03;;;;;;;;;;5965536;24;20042;-55
2021/07/17 01:02:01;;;;;;;14.68;3.83;;;;;;;;;;5963159;23;20046;-53
2021/07/17 01:04:28;;;;;;;18.42;4.53;;;;;;;;;;5963540;24;20034;-52
2021/07/17 01:06:57;;;;;;;18.95;4.57;;;;;;;;;;5965059;23;20026;-54
2021/07/17 01:09:23;;;;;;;;;;;;;;;;;;5969344;23;20061;-54
2021/07/17 01:11:51;;;;;;;18.55;4.55;;;;;;;;;;5960596;24;19929;-52
2021/07/17 01:14:19;;;;;;;15.65;4.18;;;;;;;;;;5964994;24;20038;-53
2021/07/17 01:16:45;;;;;;;24.15;4.93;;;;;;;;;;5961139;24;20090;-50
2021/07/17 01:19:12;;;;;;;18.90;4.50;;;;;;;;;;5966794;23;20041;-52
2021/07/17 01:21:40;;;;;;;20.48;4.43;;;;;;;;;;5980969;23;20071;-50
2021/07/17 01:24:07;;;;;;;22.67;4.45;;;;;;;;;;5963233;23;20273;-51
2021/07/17 01:26:33;;;;;;;21.30;4.35;;;;;;;;;;5963376;24;20042;-50
2021/07/17 01:28:59;;;;;;;26.88;4.97;;;;;;;;;;5963459;24;20026;-54
2021/07/17 01:31:27;;;;;;;18.75;3.85;;;;;;;;;;5963301;24;20043;-50
2021/07/17 01:33:54;;;;;;;23.00;4.60;;;;;;;;;;5963933;23;20039;-51
2021/07/17 01:36:20;;;;;;;26.75;4.60;;;;;;;;;;5965653;24;20030;-49
2021/07/17 01:38:48;;;;;;;20.02;4.20;;;;;;;;;;5963426;23;20034;-49
2021/07/17 01:41:16;;;;;;;17.88;4.57;;;;;;;;;;5965177;24;20034;-54
2021/07/17 01:43:43;;;;;;;20.00;4.13;;;;;;;;;;5965407;24;20039;-48
2021/07/17 01:46:09;;;;;;;19.00;3.85;;;;;;;;;;5966211;24;20022;-52
2021/07/17 01:48:36;;;;;;;13.45;3.85;;;;;;;;;;5985561;23;20037;-49
2021/07/17 01:51:02;;;;;;;14.48;4.78;;;;;;;;;;5966008;24;20041;-54
2021/07/17 01:53:29;;;;;;;16.88;4.35;;;;;;;;;;5962650;24;20113;-51
2021/07/17 01:55:57;;;;;;;27.17;4.18;;;;;;;;;;5964570;24;20030;-54
2021/07/17 01:58:23;;;;;;;16.67;3.97;;;;;;;;;;5961090;24;20038;-54
2021/07/17 02:00:50;;;;;;;18.38;3.88;;;;;;;;;;5962960;24;20120;-53
2021/07/17 02:03:16;;;;;;;16.63;4.25;;;;;;;;;;5985733;23;20034;-51
2021/07/17 02:05:43;;;;;;;15.07;4.03;;;;;;;;;;5972801;23;20031;-53
2021/07/17 02:08:12;;;;;;;18.35;4.10;;;;;;;;;;5968717;23;20124;-54
2021/07/17 02:10:39;;;;;;;17.60;4.47;;;;;;;;;;5946722;24;20046;-49
2021/07/17 02:13:08;;;;;;;19.85;4.00;;;;;;;;;;5972818;23;20049;-52
2021/07/17 02:15:36;;;;;;;17.63;4.30;;;;;;;;;;5973338;23;20029;-54
2021/07/17 02:18:03;;;;;;;20.00;4.50;;;;;;;;;;5978979;23;20025;-51
2021/07/17 02:20:31;;;;;;;16.45;4.30;;;;;;;;;;5972588;23;20027;-52
2021/07/17 02:22:57;;;;;;;19.17;4.55;;;;;;;;;;5987635;23;20650;-52
2021/07/17 02:25:24;;;;;;;16.73;4.15;;;;;;;;;;5966557;23;20046;-50
2021/07/17 02:27:52;;;;;;;22.23;4.82;;;;;;;;;;5970901;23;20042;-54
2021/07/17 02:30:20;;;;;;;18.77;4.03;;;;;;;;;;5973257;23;20045;-53
2021/07/17 02:32:47;;;;;;;16.45;4.03;;;;;;;;;;5975259;23;20030;-52
2021/07/17 02:35:13;;;;;;;23.95;4.63;;;;;;;;;;5970308;23;20038;-53
2021/07/17 02:37:40;;;;;;;17.40;4.40;;;;;;;;;;5980579;23;20026;-53
2021/07/17 02:40:07;;;;;;;20.70;4.28;;;;;;;;;;5970531;23;20025;-53
2021/07/17 02:42:34;;;;;;;17.17;4.18;;;;;;;;;;5974241;23;20045;-55
2021/07/17 02:45:01;;;;;;;21.67;4.10;;;;;;;;;;5970860;23;20053;-51
2021/07/17 02:47:29;;;;;;;21.77;4.28;;;;;;;;;;5972016;24;20034;-54
2021/07/17 02:49:55;;;;;;;19.90;4.95;;;;;;;;;;5967625;23;20042;-54
2021/07/17 02:52:22;;;;;;;17.83;3.80;;;;;;;;;;5974588;23;20080;-51
2021/07/17 02:54:48;;;;;;;21.45;4.45;;;;;;;;;;5978895;23;20047;-49
2021/07/17 02:57:14;;;;;;;21.92;5.03;;;;;;;;;;5979538;23;20147;-53
2021/07/17 02:59:41;;;;;;;20.40;4.80;;;;;;;;;;5970193;23;20030;-55
2021/07/17 03:02:08;;;;;;;23.02;4.72;;;;;;;;;;5974628;23;20034;-52
2021/07/17 03:04:35;;;;;;;24.75;4.70;;;;;;;;;;5980347;24;20030;-52
2021/07/17 03:07:02;;;;;;;20.80;4.67;;;;;;;;;;5970161;23;20026;-53
2021/07/17 03:09:28;;;;;;;23.08;4.35;;;;;;;;;;5977157;23;20038;-54
2021/07/17 03:11:55;;;;;;;23.10;3.90;;;;;;;;;;5976712;23;20038;-49
2021/07/17 03:14:21;;;;;;;21.58;4.25;;;;;;;;;;5976589;23;20051;-51
2021/07/17 03:16:48;;;;;;;20.08;4.32;;;;;;;;;;5976615;23;20037;-49
2021/07/17 03:19:14;;;;;;;21.08;4.50;;;;;;;;;;5974425;23;20109;-54
2021/07/17 03:21:43;;;;;;;15.88;4.03;;;;;;;;;;5967821;23;20089;-52
2021/07/17 03:24:09;;;;;;;;;;;;;;;;;;5980057;23;20049;-54
2021/07/17 03:26:36;;;;;;;20.05;4.05;;;;;;;;;;5973863;23;19971;-52
2021/07/17 03:29:02;;;;;;;24.05;4.47;;;;;;;;;;5974107;23;20029;-51
2021/07/17 03:31:29;;;;;;;21.50;4.82;;;;;;;;;;5991923;23;20046;-51
2021/07/17 03:33:56;;;;;;;21.48;4.93;;;;;;;;;;5964534;23;20046;-52
2021/07/17 03:36:22;;;;;;;17.17;4.95;;;;;;;;;;5970079;23;20046;-55
2021/07/17 03:38:50;;;;;;;24.38;5.05;;;;;;;;;;5970545;23;20042;-52
2021/07/17 03:41:17;;;;;;;22.60;5.22;;;;;;;;;;5995917;23;20034;-53
2021/07/17 03:43:45;;;;;;;19.60;4.90;;;;;;;;;;5979721;23;20054;-53
2021/07/17 03:46:12;;;;;;;19.52;4.18;;;;;;;;;;5966636;23;20034;-52
2021/07/17 03:48:41;;;;;;;23.15;4.25;;;;;;;;;;5969933;23;20034;-51
2021/07/17 03:51:07;;;;;;;27.15;4.70;;;;;;;;;;5973992;23;20066;-50
2021/07/17 03:53:34;;;;;;;25.50;4.85;;;;;;;;;;5996268;23;20045;-52
2021/07/17 03:56:02;;;;;;;21.55;4.90;;;;;;;;;;5980602;23;20053;-53
2021/07/17 03:58:30;;;;;;;25.03;5.10;;;;;;;;;;5979446;23;20043;-49
2021/07/17 04:00:56;;;;;;;;;;;;;;;;;;5972592;23;20038;-54
2021/07/17 04:03:24;;;;;;;23.05;5.13;;;;;;;;;;5960686;24;19921;-49
2021/07/17 04:05:50;;;;;;;20.77;4.30;;;;;;;;;;5965775;23;20037;-51
2021/07/17 04:08:18;;;;;;;14.55;4.43;;;;;;;;;;5963308;24;20037;-52
2021/07/17 04:10:44;;;;;;;15.90;4.88;;;;;;;;;;5963636;24;20042;-52
2021/07/17 04:13:12;;;;;;;19.50;4.80;;;;;;;;;;5964129;24;20034;-51
2021/07/17 04:15:39;;;;;;;18.27;5.50;;;;;;;;;;5966589;24;20026;-54
2021/07/17 04:18:05;;;;;;;14.75;4.90;;;;;;;;;;5985652;23;20264;-50
2021/07/17 04:20:32;;;;;;;21.80;5.32;;;;;;;;;;5966167;23;20037;-51
2021/07/17 04:22:58;;;;;;;17.98;4.68;;;;;;;;;;5965304;24;20026;-51
2021/07/17 04:25:25;;;;;;;23.17;5.30;;;;;;;;;;5962411;23;20124;-50
2021/07/17 04:27:52;;;;;;;20.00;5.45;;;;;;;;;;5990106;23;20034;-51
2021/07/17 04:30:20;;;;;;;25.27;5.00;;;;;;;;;;5979632;23;20075;-53
2021/07/17 04:32:46;;;;;;;23.05;4.78;;;;;;;;;;5938234;23;20098;-49
2021/07/17 04:35:13;;;;;;;23.10;5.85;;;;;;;;;;5954927;24;20289;-53
2021/07/17 04:37:39;;;;;;;17.98;4.93;;;;;;;;;;5965744;24;20045;-53
2021/07/17 04:40:06;;;;;;;22.17;5.15;;;;;;;;;;5963248;24;20089;-54
2021/07/17 04:42:35;;;;;;;20.42;5.78;;;;;;;;;;5963384;24;20137;-51
2021/07/17 04:45:02;;;;;;;18.02;5.10;;;;;;;;;;5962948;24;20026;-54
2021/07/17 04:47:30;;;;;;;19.40;5.43;;;;;;;;;;5967719;23;20042;-49
2021/07/17 04:50:02;;;;;;;15.40;4.45;;;;;;;;;;5988393;23;20112;-52
2021/07/17 04:52:28;;;;;;;23.02;5.55;;;;;;;;;;5968393;24;20027;-54
2021/07/17 04:54:54;;;;;;;20.98;5.70;;;;;;;;;;5963633;24;20034;-53
2021/07/17 04:57:21;;;;;;;29.55;6.03;;;;;;;;;;5967933;23;20041;-49
2021/07/17 04:59:47;;;;;;;18.67;5.03;;;;;;;;;;5961892;24;20055;-48
2021/07/17 05:02:15;;;;;;;23.90;5.22;;;;;;;;;;5964997;24;20039;-53
2021/07/17 05:04:43;;;;;;;25.25;5.35;;;;;;;;;;5965864;23;20034;-54
2021/07/17 05:07:09;;;;;;;18.98;5.57;;;;;;;;;;5964990;24;20027;-49
2021/07/17 05:09:36;;;;;;;21.95;5.45;;;;;;;;;;5967434;23;20160;-50
2021/07/17 05:12:02;;;;;;;17.77;6.03;;;;;;;;;;5961107;24;20038;-52
2021/07/17 05:14:29;;;;;;;24.58;5.72;;;;;;;;;;5966849;23;20102;-49
2021/07/17 05:16:55;;;;;;;18.08;5.13;;;;;;;;;;5965769;23;20041;-51
2021/07/17 05:19:22;;;;;;;17.33;4.53;;;;;;;;;;5989095;23;20038;-53
2021/07/17 05:21:50;;;;;;;18.92;5.18;;;;;;;;;;5985674;23;20045;-50
2021/07/17 05:24:16;;;;;;;18.38;5.50;;;;;;;;;;5965568;23;20030;-50
2021/07/17 05:26:43;;;;;;;30.17;8.52;;;;;;;;;;5964774;23;20038;-51
2021/07/17 05:29:09;;;;;;;26.08;6.75;;;;;;;;;;5964990;24;20031;-51
2021/07/17 05:31:36;;;;;;;19.92;5.28;;;;;;;;;;5962757;23;20079;-50
2021/07/17 05:34:02;;;;;;;15.45;5.30;;;;;;;;;;5965648;23;20050;-51
2021/07/17 05:36:29;;;;;;;14.95;4.55;;;;;;;;;;5973731;23;20045;-51
2021/07/17 05:38:58;;;;;;;18.23;4.35;;;;;;;;;;5972416;23;20030;-54
2021/07/17 05:41:24;;;;;;;20.27;4.22;;;;;;;;;;5975542;23;20038;-48
2021/07/17 05:43:50;;;;;;;19.02;4.50;;;;;;;;;;5974949;23;20034;-50
2021/07/17 05:46:17;;;;;;;22.58;4.45;;;;;;;;;;5982709;23;20090;-51
2021/07/17 05:48:45;;;;;;;16.20;4.18;;;;;;;;;;5972816;23;20049;-52
2021/07/17 05:51:11;;;;;;;21.58;5.10;;;;;;;;;;5970438;23;20045;-51
2021/07/17 05:53:38;;;;;;;18.05;3.75;;;;;;;;;;5973324;23;20049;-51
2021/07/17 05:56:06;;;;;;;19.40;4.47;;;;;;;;;;5983866;23;20045;-53
2021/07/17 05:58:33;;;;;;;18.27;3.90;;;;;;;;;;5971265;23;20049;-49
2021/07/17 06:00:59;;;;;;;19.23;4.43;;;;;;;;;;5974331;23;20037;-49
2021/07/17 06:03:26;;;;;;;20.23;4.40;;;;;;;;;;5971531;23;20030;-50
2021/07/17 06:05:54;;;;;;;15.05;3.45;;;;;;;;;;5972303;23;20038;-51
2021/07/17 06:08:25;;;;;;;16.03;4.50;;;;;;;;;;5955432;23;20040;-54
2021/07/17 06:10:56;;;;;;;22.70;4.10;;;;;;;;;;5964863;23;20088;-51
2021/07/17 06:13:26;;;;;;;20.00;4.20;;;;;;;;;;5961989;23;20018;-49
2021/07/17 06:15:52;;;;;;;20.03;4.80;;;;;;;;;;5964613;23;20030;-52
2021/07/17 06:18:21;;;;;;;19.35;3.97;;;;;;;;;;5982103;23;20289;-49
2021/07/17 06:20:47;;;;;;;15.90;4.20;;;;;;;;;;5940287;23;20042;-49
2021/07/17 06:23:14;;;;;;;21.15;3.90;;;;;;;;;;5945219;24;20034;-48
2021/07/17 06:25:40;;;;;;;20.83;4.68;;;;;;;;;;5990738;23;20026;-52
2021/07/17 06:28:09;;;;;;;14.07;4.05;;;;;;;;;;5965361;24;20042;-54
2021/07/17 06:30:35;;;;;;;;;;;;;;;;;;5965106;23;20042;-51
2021/07/17 06:33:03;;;;;;;15.65;3.88;;;;;;;;;;5963325;24;19918;-53
2021/07/17 06:35:30;;;;;;;21.58;4.20;;;;;;;;;;5962876;23;20035;-47
2021/07/17 06:37:57;;;;;;;29.88;4.78;;;;;;;;;;5966156;23;20030;-53
2021/07/17 06:40:23;;;;;;;15.98;3.80;;;;;;;;;;5981414;23;20038;-50
2021/07/17 06:42:50;;;;;;;16.52;4.10;;;;;;;;;;5943126;23;20045;-51
2021/07/17 06:45:17;;;;;;;18.92;4.50;;;;;;;;;;5987011;23;20034;-51
2021/07/17 06:47:44;;;;;;;14.77;4.03;;;;;;;;;;5968338;23;20076;-51
2021/07/17 06:50:13;;;;;;;19.30;4.55;;;;;;;;;;5959780;24;20034;-50
2021/07/17 06:52:39;;;;;;;;;;;;;;;;;;5966501;24;20046;-53
2021/07/17 06:55:07;;;;;;;26.17;3.78;;;;;;;;;;5962374;23;19957;-54
2021/07/17 06:57:35;;;;;;;16.33;3.20;;;;;;;;;;5988859;23;20042;-52
2021/07/17 07:00:02;;;;;;;12.82;3.53;;;;;;;;;;5963322;24;20264;-50
2021/07/17 07:02:28;;;;;;;17.20;3.90;;;;;;;;;;5965937;24;20030;-50
2021/07/17 07:04:55;;;;;;;18.42;3.85;;;;;;;;;;5963590;24;20027;-52
2021/07/17 07:07:22;;;;;;;14.23;3.72;;;;;;;;;;5955969;24;20017;-51
2021/07/17 07:09:49;;;;;;;12.23;2.87;;;;;;;;;;5975073;23;20042;-50
2021/07/17 07:12:16;;;;;;;18.80;3.58;;;;;;;;;;5964909;24;20038;-52
2021/07/17 07:14:42;;;;;;;14.18;3.15;;;;;;;;;;5988498;23;20117;-49
2021/07/17 07:17:11;;;;;;;20.02;3.53;;;;;;;;;;5963525;23;20026;-52
2021/07/17 07:19:37;;;;;;;20.05;3.13;;;;;;;;;;5965530;24;20026;-51
2021/07/17 07:22:05;;;;;;;13.00;3.15;;;;;;;;;;5962855;24;20049;-53
2021/07/17 07:24:33;;;;;;;15.82;4.00;;;;;;;;;;5968246;23;20045;-53
2021/07/17 07:26:59;;;;;;;14.05;2.97;;;;;;;;;;5965174;23;20042;-48
2021/07/17 07:29:27;;;;;;;9.30;2.72;;;;;;;;;;5989356;23;20026;-52
2021/07/17 07:31:54;;;;;;;14.07;2.90;;;;;;;;;;5985410;23;20041;-50
2021/07/17 07:34:21;;;;;;;12.80;2.97;;;;;;;;;;5965698;24;20036;-55
2021/07/17 07:36:47;;;;;;;10.05;2.40;;;;;;;;;;5963555;23;20034;-51
2021/07/17 07:39:14;;;;;;;13.10;2.58;;;;;;;;;;5988866;23;20030;-51
2021/07/17 07:41:42;;;;;;;19.02;2.60;;;;;;;;;;5986269;23;20034;-51
2021/07/17 07:44:08;;;;;;;10.87;2.33;;;;;;;;;;5964523;24;20035;-53
2021/07/17 07:46:35;;;;;;;13.52;2.50;;;;;;;;;;5982604;23;20272;-52
2021/07/17 07:49:02;;;;;;;12.93;3.00;;;;;;;;;;5938466;23;20042;-50
2021/07/17 07:51:31;;;;;;;12.25;2.97;;;;;;;;;;5939489;23;20067;-53
2021/07/17 07:53:57;;;;;;;8.50;2.03;;;;;;;;;;5968327;23;20034;-53
2021/07/17 07:56:24;;;;;;;6.78;2.20;;;;;;;;;;5965363;24;20049;-54
2021/07/17 07:58:56;;;;;;;14.68;2.60;;;;;;;;;;5968987;23;20034;-51
2021/07/17 08:01:22;;;;;;;10.75;2.42;;;;;;;;;;5967772;23;20038;-53
2021/07/17 08:03:49;;;;;;;10.23;2.60;;;;;;;;;;5963140;23;20149;-53
2021/07/17 08:06:16;;;;;;;9.45;2.35;;;;;;;;;;5967012;23;20092;-55
2021/07/17 08:08:42;;;;;;;5.90;1.67;;;;;;;;;;5961345;24;20086;-55
2021/07/17 08:11:09;;;;;;;11.35;2.50;;;;;;;;;;5965952;24;20034;-55
2021/07/17 08:13:35;;;;;;;6.32;1.95;;;;;;;;;;5962306;24;20041;-50
2021/07/17 08:16:03;;;;;;;14.82;2.55;;;;;;;;;;5965661;24;20049;-56
2021/07/17 08:18:30;;;;;;;7.25;2.17;;;;;;;;;;5962604;24;20034;-54
2021/07/17 08:20:57;;;;;;;9.45;2.20;;;;;;;;;;5963378;24;20063;-54
2021/07/17 08:23:24;;;;;;;12.18;2.30;;;;;;;;;;5984795;23;20030;-54
2021/07/17 08:25:50;;;;;;;8.18;1.80;;;;;;;;;;5965433;24;20094;-52
2021/07/17 08:28:20;;;;;;;11.75;2.40;;;;;;;;;;5964542;24;20042;-56
2021/07/17 08:30:46;;;;;;;9.50;2.40;;;;;;;;;;5984461;23;20038;-53
2021/07/17 08:33:14;;;;;;;7.68;1.88;;;;;;;;;;5938058;23;20034;-55
2021/07/17 08:35:40;;;;;;;6.70;2.20;;;;;;;;;;5988458;23;20049;-55
2021/07/17 08:38:07;;;;;;;10.70;2.00;;;;;;;;;;5962302;24;20280;-53
2021/07/17 08:40:34;;;;;;;11.13;2.45;;;;;;;;;;5964323;23;20038;-52
2021/07/17 08:43:00;;;;;;;12.95;2.05;;;;;;;;;;5987187;23;20034;-55
2021/07/17 08:45:27;;;;;;;7.97;1.95;;;;;;;;;;5960372;23;20030;-55
2021/07/17 08:47:55;;;;;;;10.40;2.05;;;;;;;;;;5963432;23;20034;-56
2021/07/17 08:50:23;;;;;;;11.48;2.30;;;;;;;;;;5960170;23;20042;-54
2021/07/17 08:52:50;;;;;;;8.98;2.05;;;;;;;;;;5966252;23;20097;-56
2021/07/17 08:55:17;;;;;;;14.68;1.92;;;;;;;;;;5961052;23;20026;-57
2021/07/17 08:57:44;;;;;;;18.45;2.17;;;;;;;;;;5965371;23;20037;-52
2021/07/17 09:00:13;;;;;;;8.07;1.80;;;;;;;;;;5964303;23;20050;-55
2021/07/17 09:02:40;;;;;;;13.45;2.13;;;;;;;;;;5986360;23;20049;-54
2021/07/17 09:05:08;;;;;;;8.25;1.73;;;;;;;;;;5963817;23;20034;-54
2021/07/17 09:07:37;;;;;;;11.10;1.60;;;;;;;;;;5965614;24;20022;-52
2021/07/17 09:10:19;;;;;;;8.23;1.65;;;;;;;;;;5960327;24;20041;-53
2021/07/17 09:12:45;;;;;;;6.70;1.98;;;;;;;;;;5984841;23;20031;-55
2021/07/17 09:15:18;;;;;;;7.35;1.92;;;;;;;;;;5980903;23;20034;-54
2021/07/17 09:17:53;;;;;;;8.43;1.75;;;;;;;;;;5965990;24;20110;-54
2021/07/17 09:20:20;;;;;;;6.80;1.67;;;;;;;;;;5986794;23;20045;-56
2021/07/17 09:22:56;;;;;;;7.50;1.70;;;;;;;;;;5965864;24;20098;-54
2021/07/17 09:25:23;;;;;;;6.75;1.75;;;;;;;;;;5960579;24;20026;-53
2021/07/17 09:27:49;;;;;;;8.77;1.42;;;;;;;;;;5966277;24;20034;-53
2021/07/17 09:30:31;;;;;;;6.63;1.52;;;;;;;;;;5962989;24;20038;-55
2021/07/17 09:32:58;;;;;;;11.90;1.80;;;;;;;;;;5953569;24;20019;-54
2021/07/17 09:35:24;;;;;;;12.80;1.40;;;;;;;;;;5964320;24;20049;-55
2021/07/17 09:37:55;;;;;;;2.80;1.05;;;;;;;;;;5966344;24;20041;-56
2021/07/17 09:40:22;;;;;;;7.88;1.40;;;;;;;;;;5964848;24;20066;-55
2021/07/17 09:42:48;;;;;;;7.03;1.35;;;;;;;;;;5962656;23;20035;-55
2021/07/17 09:45:29;;;;;;;6.32;1.60;;;;;;;;;;5966402;24;20031;-55
2021/07/17 09:47:56;;;;;;;7.53;1.90;;;;;;;;;;5961542;23;20041;-56
2021/07/17 09:50:22;;;;;;;3.65;1.23;;;;;;;;;;5964763;23;20034;-56
2021/07/17 09:52:49;;;;;;;9.45;1.60;;;;;;;;;;5961128;23;20031;-56
2021/07/17 09:55:18;;;;;;;7.07;1.63;;;;;;;;;;5968611;23;20030;-55
2021/07/17 09:57:47;;;;;;;5.78;1.35;;;;;;;;;;5963849;23;20038;-56
2021/07/17 10:00:15;;;;;;;6.88;1.48;;;;;;;;;;5988915;23;20045;-57
2021/07/17 10:02:41;;;;;;;6.45;1.30;;;;;;;;;;5963259;23;20053;-55
2021/07/17 10:05:09;;;;;;;5.80;1.35;;;;;;;;;;5963895;23;20042;-56
2021/07/17 10:07:35;;;;;;;7.32;1.27;;;;;;;;;;5960287;23;20109;-57
2021/07/17 10:10:02;;;;;;;5.07;1.20;;;;;;;;;;5962732;23;20166;-54
2021/07/17 10:12:34;;;;;;;5.68;1.30;;;;;;;;;;5960071;23;20101;-57
2021/07/17 10:15:01;;;;;;;6.25;1.00;;;;;;;;;;5962749;23;20035;-56
2021/07/17 10:17:33;;;;;;;9.15;1.45;;;;;;;;;;5960137;23;20070;-55
2021/07/17 10:20:01;;;;;;;6.57;1.88;;;;;;;;;;5962894;23;20030;-57
2021/07/17 10:22:27;;;;;;;5.30;1.35;;;;;;;;;;5961289;23;20058;-56
2021/07/17 10:24:54;;;;;;;4.22;1.08;;;;;;;;;;5965069;23;20034;-56
2021/07/17 10:27:20;;;;;;;6.03;1.33;;;;;;;;;;5962720;24;20051;-57
2021/07/17 10:29:50;;;;;;;4.63;1.30;;;;;;;;;;5967399;23;20041;-56
2021/07/17 10:32:16;;;;;;;5.25;1.42;;;;;;;;;;5964132;23;20041;-55
2021/07/17 10:34:44;;;;;;;4.68;1.10;;;;;;;;;;5961109;24;20057;-57
2021/07/17 10:37:12;;;;;;;5.68;1.52;;;;;;;;;;5965156;23;20038;-55
2021/07/17 10:39:40;;;;;;;3.55;1.08;;;;;;;;;;5962369;24;20038;-58
2021/07/17 10:42:11;;;;;;;5.55;1.50;;;;;;;;;;5982639;23;20035;-56
2021/07/17 10:44:38;;;;;;;5.68;1.20;;;;;;;;;;5961684;23;20046;-56
2021/07/17 10:47:07;;;;;;;6.18;1.35;;;;;;;;;;5965120;24;20041;-57
2021/07/17 10:49:34;;;;;;;;;;;;;;;;;;5962605;24;20070;-56
2021/07/17 10:52:01;;;;;;;2.33;0.87;;;;;;;;;;5963628;24;19996;-56
2021/07/17 10:54:28;;;;;;;6.25;1.40;;;;;;;;;;5964534;24;20276;-58
2021/07/17 10:56:55;;;;;;;7.45;1.10;;;;;;;;;;5966687;24;20030;-57
2021/07/17 10:59:41;;;;;;;2.15;0.88;;;;;;;;;;5965678;23;20037;-57
2021/07/17 11:02:09;;;;;;;3.28;1.27;;;;;;;;;;5967320;23;20041;-57
2021/07/17 11:04:38;;;;;;;5.18;1.33;;;;;;;;;;5963720;24;20023;-57
2021/07/17 11:07:23;;;;;;;1.92;1.02;;;;;;;;;;5967474;24;20034;-57
2021/07/17 11:09:59;;;;;;;3.45;1.00;;;;;;;;;;5967343;23;20047;-56
2021/07/17 11:12:27;;;;;;;6.63;1.40;;;;;;;;;;5968094;24;20030;-57
2021/07/17 11:14:53;;;;;;;2.35;1.13;;;;;;;;;;5965309;23;20047;-57
2021/07/17 11:17:35;;;;;;;5.03;1.10;;;;;;;;;;5968464;23;20042;-57
2021/07/17 11:23:04;;;;;;;5.20;1.20;;;;;;;;;;5119860;27;20115;-56
2021/07/17 11:25:30;;;;;;;5.00;1.70;;;;;;;;;;5049415;28;20060;-56
2021/07/17 11:27:57;;;;;;;1.75;0.88;;;;;;;;;;5062898;28;20052;-56
2021/07/17 11:30:24;;;;;;;3.92;1.02;;;;;;;;;;5051577;28;20049;-57
2021/07/17 11:33:09;;;;;;;5.55;1.08;;;;;;;;;;5040016;28;20167;-57
2021/07/17 11:35:37;;;;;;;3.22;1.10;;;;;;;;;;5043498;28;20041;-56
2021/07/17 11:38:07;;;;;;;2.90;0.82;;;;;;;;;;5060252;28;20045;-56
2021/07/17 11:40:34;;;;;;;2.35;1.00;;;;;;;;;;5071806;28;20041;-57
2021/07/17 11:43:01;;;;;;;5.38;0.98;;;;;;;;;;5062780;28;20059;-57
2021/07/17 11:45:27;;;;;;;4.80;1.02;;;;;;;;;;5074516;28;20052;-56
2021/07/17 11:47:54;;;;;;;2.75;0.98;;;;;;;;;;5061158;28;20045;-56
2021/07/17 11:50:23;;;;;;;6.78;1.13;;;;;;;;;;5077317;28;20047;-56
2021/07/17 11:52:50;;;;;;;3.88;1.15;;;;;;;;;;5038283;28;20126;-57
2021/07/17 11:55:19;;;;;;;5.13;1.00;;;;;;;;;;5040592;28;20052;-57
2021/07/17 11:57:48;;;;;;;3.30;1.17;;;;;;;;;;5053999;28;20044;-57
2021/07/17 12:00:17;;;;;;;2.30;0.95;;;;;;;;;;5060356;28;20032;-57
2021/07/17 12:02:44;;;;;;;3.65;1.23;;;;;;;;;;5064714;28;20037;-56
2021/07/17 12:05:13;;;;;;;3.35;1.17;;;;;;;;;;5057723;28;20045;-57
2021/07/17 12:07:40;;;;;;;3.92;1.40;;;;;;;;;;5055474;28;20044;-55
2021/07/17 12:10:08;;;;;;;3.38;1.10;;;;;;;;;;5059853;28;20041;-57
2021/07/17 12:12:34;;;;;;;;;;;;;;;;;;5053368;28;20045;-57
2021/07/17 12:15:17;;;;;;;6.22;0.90;;;;;;;;;;5055490;28;19940;-57
2021/07/17 12:17:52;;;;;;;6.20;1.27;;;;;;;;;;5054288;28;20114;-56
2021/07/17 12:20:19;;;;;;;4.53;1.02;;;;;;;;;;5040514;28;20043;-57
2021/07/17 12:22:47;;;;;;;3.72;0.93;;;;;;;;;;5034019;28;20038;-57
2021/07/17 12:25:16;;;;;;;2.53;0.90;;;;;;;;;;5036502;28;20057;-57
2021/07/17 12:27:50;;;;;;;8.38;1.80;;;;;;;;;;5037423;28;20045;-57
2021/07/17 12:30:17;;;;;;;2.67;0.98;;;;;;;;;;5034183;28;20037;-57
2021/07/17 12:32:43;;;;;;;8.02;1.05;;;;;;;;;;5033366;28;20041;-58
2021/07/17 12:35:11;;;;;;;4.03;1.25;;;;;;;;;;5042580;28;20060;-56
2021/07/17 12:37:39;;;;;;;2.72;0.95;;;;;;;;;;5036805;28;20103;-57
2021/07/17 12:40:07;;;;;;;3.92;1.23;;;;;;;;;;5025414;28;20054;-57
2021/07/17 12:42:34;;;;;;;2.83;1.02;;;;;;;;;;5022227;28;20038;-57
2021/07/17 12:45:00;;;;;;;3.58;1.00;;;;;;;;;;5043434;28;20068;-57
2021/07/17 12:47:26;;;;;;;4.85;1.10;;;;;;;;;;5040745;28;20083;-57
2021/07/17 12:50:00;;;;;;;3.95;1.20;;;;;;;;;;5039873;28;20048;-57
2021/07/17 12:52:28;;;;;;;4.82;1.45;;;;;;;;;;5044737;28;20041;-57
2021/07/17 12:55:05;;;;;;;2.35;0.88;;;;;;;;;;5024755;28;20034;-56
2021/07/17 12:57:31;;;;;;;3.42;0.90;;;;;;;;;;5033826;28;20034;-57
2021/07/17 12:59:58;;;;;;;3.63;1.08;;;;;;;;;;5039451;28;20042;-56
2021/07/17 13:02:29;;;;;;;6.38;1.15;;;;;;;;;;5025450;28;20048;-60
2021/07/17 13:04:55;;;;;;;4.55;1.00;;;;;;;;;;5032437;28;20056;-59
2021/07/17 13:07:29;;;;;;;5.60;1.15;;;;;;;;;;5043725;28;20041;-59
2021/07/17 13:09:56;;;;;;;3.00;1.05;;;;;;;;;;5030569;28;20081;-59
2021/07/17 13:12:26;;;;;;;5.43;1.17;;;;;;;;;;5023082;28;20045;-60
2021/07/17 13:14:52;;;;;;;3.38;1.10;;;;;;;;;;5029370;28;20092;-60
2021/07/17 13:17:20;;;;;;;3.95;1.00;;;;;;;;;;5045478;28;20037;-60
2021/07/17 13:19:48;;;;;;;5.82;1.48;;;;;;;;;;5039557;28;20045;-60
2021/07/17 13:22:15;;;;;;;3.27;1.17;;;;;;;;;;5040933;28;20048;-60
2021/07/17 13:24:44;;;;;;;2.25;0.98;;;;;;;;;;5023125;28;20045;-59
2021/07/17 13:27:17;;;;;;;3.78;1.25;;;;;;;;;;5042791;28;20060;-59
2021/07/17 13:29:45;;;;;;;4.65;1.40;;;;;;;;;;5036497;28;20045;-60
2021/07/17 13:32:12;;;;;;;2.45;1.00;;;;;;;;;;5022800;28;20042;-60
2021/07/17 13:34:39;;;;;;;4.07;1.30;;;;;;;;;;5020025;28;20061;-60
2021/07/17 13:37:10;;;;;;;4.53;1.20;;;;;;;;;;5015775;28;20049;-60
2021/07/17 13:39:52;;;;;;;4.45;1.42;;;;;;;;;;5021401;28;20106;-60
2021/07/17 13:42:19;;;;;;;3.33;1.10;;;;;;;;;;5023803;28;20053;-60
2021/07/17 13:44:46;;;;;;;7.72;1.25;;;;;;;;;;5036847;28;20053;-59
2021/07/17 13:47:14;;;;;;;7.05;1.13;;;;;;;;;;5021296;28;20123;-60
2021/07/17 13:49:42;;;;;;;5.80;1.10;;;;;;;;;;5021832;28;20045;-60
2021/07/17 13:52:33;;;;;;;7.30;1.30;;;;;;;;;;5022251;28;20109;-60
2021/07/17 13:55:01;;;;;;;1.65;0.80;;;;;;;;;;4985947;28;20053;-60
2021/07/17 13:57:39;;;;;;;5.50;1.40;;;;;;;;;;5017295;28;20045;-59
2021/07/17 14:00:07;;;;;;;4.20;1.30;;;;;;;;;;5022730;28;20048;-60
2021/07/17 14:02:34;;;;;;;8.35;1.55;;;;;;;;;;5020431;28;20045;-60
2021/07/17 14:05:00;;;;;;;2.75;1.10;;;;;;;;;;5024039;28;20048;-59
2021/07/17 14:07:27;;;;;;;7.75;1.15;;;;;;;;;;5019172;28;20061;-60
2021/07/17 14:09:53;;;;;;;3.65;1.33;;;;;;;;;;5029297;28;20041;-60
2021/07/17 14:12:25;;;;;;;3.58;0.90;;;;;;;;;;5025851;28;20042;-59
2021/07/17 14:14:52;;;;;;;4.25;1.17;;;;;;;;;;5022126;28;20046;-60
2021/07/17 14:17:18;;;;;;;2.50;0.88;;;;;;;;;;5024591;28;20041;-60
2021/07/17 14:19:46;;;;;;;4.60;0.90;;;;;;;;;;5039428;28;20069;-60
2021/07/17 14:22:13;;;;;;;2.60;0.90;;;;;;;;;;5042395;28;20037;-60
2021/07/17 14:24:40;;;;;;;2.22;0.90;;;;;;;;;;5041262;28;20045;-60
2021/07/17 14:27:06;;;;;;;3.53;1.00;;;;;;;;;;5037554;28;20033;-59
2021/07/17 14:29:34;;;;;;;4.45;1.25;;;;;;;;;;5043993;28;20033;-60
2021/07/17 14:32:01;;;;;;;3.25;1.13;;;;;;;;;;5036574;28;20041;-60
2021/07/17 14:34:28;;;;;;;1.70;0.98;;;;;;;;;;5023465;28;20060;-60
2021/07/17 14:36:54;;;;;;;2.78;1.10;;;;;;;;;;5023006;28;20049;-60
2021/07/17 14:39:21;;;;;;;7.15;1.15;;;;;;;;;;5041694;28;20034;-59
2021/07/17 14:41:48;;;;;;;7.00;1.13;;;;;;;;;;5033769;28;20029;-60
2021/07/17 14:44:14;;;;;;;4.70;1.20;;;;;;;;;;5017780;28;20120;-60